createdAt,value
2023-02-09T00:01:16.005Z,14.73
2023-02-09T00:03:42.970Z,14.10
2023-02-09T00:06:09.982Z,14.55
2023-02-09T00:08:36.413Z,14.25
2023-02-09T00:11:07.520Z,14.75
2023-02-09T00:13:33.914Z,13.68
2023-02-09T00:16:00.901Z,13.88
2023-02-09T00:18:27.577Z,14.07
2023-02-09T00:21:03.818Z,13.15
2023-02-09T00:23:30.726Z,13.68
2023-02-09T00:26:00.911Z,13.80
2023-02-09T00:28:27.572Z,13.68
2023-02-09T00:30:54.135Z,13.70
2023-02-09T00:33:20.612Z,14.15
2023-02-09T00:35:47.052Z,14.38
2023-02-09T00:38:13.502Z,14.32
2023-02-09T00:40:40.051Z,13.70
2023-02-09T00:43:06.655Z,13.88
2023-02-09T00:45:33.091Z,14.43
2023-02-09T00:47:59.596Z,13.75
2023-02-09T00:50:26.187Z,13.32
2023-02-09T00:52:52.596Z,13.75
2023-02-09T00:55:18.990Z,14.10
2023-02-09T00:57:45.423Z,14.20
2023-02-09T01:00:12.903Z,14.90
2023-02-09T01:02:39.352Z,13.32
2023-02-09T01:05:06.085Z,13.90
2023-02-09T01:07:32.643Z,13.00
2023-02-09T01:09:59.040Z,15.13
2023-02-09T01:12:25.981Z,13.27
2023-02-09T01:14:52.420Z,13.20
2023-02-09T01:17:18.812Z,13.77
2023-02-09T01:19:45.196Z,14.35
2023-02-09T01:22:11.613Z,12.85
2023-02-09T01:24:39.287Z,14.82
2023-02-09T01:27:05.710Z,13.68
2023-02-09T01:29:32.100Z,13.35
2023-02-09T01:31:58.630Z,16.35
2023-02-09T01:34:25.089Z,13.00
2023-02-09T01:36:51.500Z,15.50
2023-02-09T01:39:17.899Z,14.65
2023-02-09T01:41:44.369Z,13.48
2023-02-09T01:44:10.803Z,13.68
2023-02-09T01:46:37.330Z,13.77
2023-02-09T01:49:13.740Z,14.25
2023-02-09T01:52:01.382Z,15.00
2023-02-09T01:54:38.947Z,14.95
2023-02-09T01:57:10.402Z,14.90
2023-02-09T01:59:37.620Z,12.77
2023-02-09T02:02:04.409Z,15.05
2023-02-09T02:04:30.820Z,14.43
2023-02-09T02:06:58.272Z,14.43
2023-02-09T02:09:24.673Z,14.07
2023-02-09T02:11:51.059Z,13.43
2023-02-09T02:14:30.684Z,14.32
2023-02-09T02:17:13.098Z,14.65
2023-02-09T02:19:57.737Z,14.07
2023-02-09T02:22:36.345Z,13.75
2023-02-09T02:25:29.176Z,13.18
2023-02-09T02:28:29.751Z,14.13
2023-02-09T02:31:05.048Z,13.88
2023-02-09T02:33:41.315Z,13.40
2023-02-09T02:36:14.597Z,13.25
2023-02-09T02:38:51.150Z,14.43
2023-02-09T02:41:30.506Z,14.05
2023-02-09T02:44:03.264Z,13.65
2023-02-09T02:46:33.338Z,14.85
2023-02-09T02:51:37.558Z,12.73
2023-02-09T02:54:10.434Z,14.45
2023-02-09T02:56:38.777Z,14.15
2023-02-09T02:59:07.098Z,13.85
2023-02-09T03:01:45.234Z,14.30
2023-02-09T03:04:11.721Z,12.32
2023-02-09T03:06:38.198Z,12.60
2023-02-09T03:09:04.634Z,12.30
2023-02-09T03:11:36.068Z,13.07
2023-02-09T03:14:10.305Z,12.00
2023-02-09T03:16:47.996Z,10.05
2023-02-09T03:19:35.643Z,10.57
2023-02-09T03:22:14.897Z,10.77
2023-02-09T03:24:45.439Z,10.90
2023-02-09T03:27:25.215Z,10.85
2023-02-09T03:29:54.145Z,10.70
2023-02-09T03:32:20.608Z,11.10
2023-02-09T03:34:47.020Z,10.75
2023-02-09T03:37:13.481Z,10.25
2023-02-09T03:39:39.880Z,10.40
2023-02-09T03:42:06.533Z,12.15
2023-02-09T03:44:32.940Z,10.52
2023-02-09T03:47:00.806Z,9.70
2023-02-09T03:49:34.780Z,10.52
2023-02-09T03:52:01.815Z,8.80
2023-02-09T03:54:31.856Z,10.13
2023-02-09T03:59:24.544Z,10.00
2023-02-09T04:01:51.620Z,9.88
2023-02-09T04:04:18.525Z,9.20
2023-02-09T04:06:44.928Z,8.90
2023-02-09T04:09:11.411Z,10.13
2023-02-09T04:11:37.831Z,10.07
2023-02-09T04:14:04.373Z,9.48
2023-02-09T04:16:30.904Z,9.60
2023-02-09T04:18:57.382Z,9.77
2023-02-09T04:21:23.845Z,9.23
2023-02-09T04:23:50.312Z,9.75
2023-02-09T04:26:16.794Z,9.95
2023-02-09T04:28:43.315Z,10.15
2023-02-09T04:31:09.874Z,8.50
2023-02-09T04:33:36.383Z,10.27
2023-02-09T04:36:03.329Z,9.32
2023-02-09T04:38:29.807Z,9.13
2023-02-09T04:40:58.373Z,9.38
2023-02-09T04:43:24.776Z,7.30
2023-02-09T04:45:51.241Z,9.68
2023-02-09T04:48:19.065Z,8.45
2023-02-09T04:50:45.813Z,8.27
2023-02-09T04:53:12.447Z,8.02
2023-02-09T04:55:39.664Z,7.82
2023-02-09T04:58:06.058Z,7.43
2023-02-09T05:00:32.433Z,7.72
2023-02-09T05:02:58.846Z,7.25
2023-02-09T05:05:25.256Z,6.82
2023-02-09T05:07:51.651Z,8.02
2023-02-09T05:10:18.198Z,8.13
2023-02-09T05:12:44.599Z,7.95
2023-02-09T05:15:10.980Z,6.75
2023-02-09T05:17:37.407Z,6.88
2023-02-09T05:20:04.271Z,7.35
2023-02-09T05:22:30.710Z,7.15
2023-02-09T05:24:57.127Z,7.25
2023-02-09T05:27:23.547Z,6.63
2023-02-09T05:29:49.945Z,6.60
2023-02-09T05:32:16.414Z,6.72
2023-02-09T05:34:42.876Z,7.00
2023-02-09T05:37:09.277Z,6.20
2023-02-09T05:39:35.686Z,6.15
2023-02-09T05:42:02.303Z,5.82
2023-02-09T05:44:28.664Z,5.55
2023-02-09T05:46:55.060Z,6.70
2023-02-09T05:49:21.481Z,6.85
2023-02-09T05:51:47.878Z,7.18
2023-02-09T05:54:14.285Z,7.60
2023-02-09T05:56:40.673Z,5.55
2023-02-09T05:59:07.120Z,6.72
2023-02-09T06:01:33.517Z,6.32
2023-02-09T06:03:59.930Z,5.60
2023-02-09T06:06:26.372Z,6.35
2023-02-09T06:08:52.773Z,6.47
2023-02-09T06:11:19.179Z,6.25
2023-02-09T06:13:45.619Z,6.30
2023-02-09T06:16:12.078Z,6.93
2023-02-09T06:18:38.524Z,6.18
2023-02-09T06:21:06.033Z,6.45
2023-02-09T06:23:34.978Z,5.75
2023-02-09T06:26:06.238Z,7.47
2023-02-09T06:28:32.737Z,6.00
2023-02-09T06:30:59.357Z,6.72
2023-02-09T06:33:25.841Z,5.85
2023-02-09T06:35:52.583Z,6.68
2023-02-09T06:38:19.118Z,5.75
2023-02-09T06:40:46.695Z,6.60
2023-02-09T06:43:13.315Z,5.90
2023-02-09T06:45:39.774Z,6.60
2023-02-09T06:48:06.705Z,5.65
2023-02-09T06:50:34.605Z,6.45
2023-02-09T06:53:01.181Z,6.18
2023-02-09T06:55:27.616Z,5.75
2023-02-09T06:57:54.551Z,5.72
2023-02-09T07:00:21.373Z,5.78
2023-02-09T07:02:47.799Z,7.07
2023-02-09T07:05:14.833Z,5.47
2023-02-09T07:07:41.445Z,6.38
2023-02-09T07:10:09.041Z,5.97
2023-02-09T07:12:35.433Z,5.85
2023-02-09T07:15:01.872Z,5.50
2023-02-09T07:17:29.278Z,6.28
2023-02-09T07:19:56.106Z,5.25
2023-02-09T07:22:22.620Z,5.72
2023-02-09T07:24:49.318Z,6.15
2023-02-09T07:27:15.704Z,7.07
2023-02-09T07:29:42.106Z,6.05
2023-02-09T07:32:08.590Z,5.68
2023-02-09T07:34:35.216Z,6.28
2023-02-09T07:37:01.614Z,5.72
2023-02-09T07:39:28.090Z,5.38
2023-02-09T07:41:54.656Z,5.57
2023-02-09T07:44:21.048Z,4.82
2023-02-09T07:46:47.662Z,5.93
2023-02-09T07:49:14.095Z,5.82
2023-02-09T07:51:40.501Z,5.70
2023-02-09T07:54:07.505Z,6.07
2023-02-09T07:56:34.041Z,5.38
2023-02-09T07:59:00.430Z,5.90
2023-02-09T08:01:26.877Z,6.32
2023-02-09T08:03:54.356Z,5.97
2023-02-09T08:06:40.694Z,5.35
2023-02-09T08:09:08.745Z,5.97
2023-02-09T08:11:55.452Z,5.78
2023-02-09T08:14:34.849Z,4.80
2023-02-09T08:17:03.131Z,6.05
2023-02-09T08:19:29.515Z,6.40
2023-02-09T08:21:56.050Z,5.68
2023-02-09T08:24:22.438Z,6.05
2023-02-09T08:26:48.994Z,4.68
2023-02-09T08:29:15.379Z,6.22
2023-02-09T08:31:41.883Z,5.90
2023-02-09T08:34:08.306Z,5.35
2023-02-09T08:36:34.916Z,5.47
2023-02-09T08:39:01.300Z,6.03
2023-02-09T08:41:27.723Z,4.97
2023-02-09T08:43:54.157Z,4.72
2023-02-09T08:46:20.749Z,4.70
2023-02-09T08:48:47.257Z,5.90
2023-02-09T08:51:14.142Z,6.03
2023-02-09T08:53:40.674Z,5.22
2023-02-09T08:56:07.066Z,4.95
2023-02-09T08:58:33.543Z,5.07
2023-02-09T09:01:00.085Z,5.68
2023-02-09T09:03:27.452Z,5.43
2023-02-09T09:06:00.834Z,5.65
2023-02-09T09:08:27.524Z,6.45
2023-02-09T09:10:53.983Z,5.90
2023-02-09T09:13:20.399Z,5.25
2023-02-09T09:15:47.150Z,5.55
2023-02-09T09:18:13.740Z,3.80
2023-02-09T09:20:40.549Z,5.53
2023-02-09T09:23:07.007Z,4.90
2023-02-09T09:25:33.427Z,4.45
2023-02-09T09:27:59.880Z,5.15
2023-02-09T09:30:26.377Z,4.95
2023-02-09T09:32:53.120Z,5.07
2023-02-09T09:35:19.663Z,5.38
2023-02-09T09:37:46.109Z,5.22
2023-02-09T09:40:23.880Z,5.95
2023-02-09T09:43:02.026Z,4.95
2023-02-09T09:45:29.368Z,4.72
2023-02-09T09:47:55.818Z,4.55
2023-02-09T09:50:38.482Z,5.20
2023-02-09T09:53:05.879Z,4.97
2023-02-09T09:55:32.281Z,5.85
2023-02-09T09:58:00.384Z,4.88
2023-02-09T10:00:45.186Z,5.53
2023-02-09T10:03:15.983Z,5.22
2023-02-09T10:05:42.455Z,5.28
2023-02-09T10:08:18.275Z,4.70
2023-02-09T10:13:47.799Z,5.47
2023-02-09T10:16:34.670Z,5.03
2023-02-09T10:19:02.554Z,5.15
2023-02-09T10:21:35.932Z,5.00
2023-02-09T10:24:02.223Z,5.40
2023-02-09T10:26:32.970Z,5.30
2023-02-09T10:29:12.220Z,5.25
2023-02-09T10:31:41.685Z,5.15
2023-02-09T10:34:08.040Z,5.20
2023-02-09T10:36:54.125Z,4.78
2023-02-09T10:39:22.731Z,4.75
2023-02-09T10:41:51.868Z,4.72
2023-02-09T10:44:28.102Z,4.97
2023-02-09T10:47:19.375Z,4.78
2023-02-09T10:50:10.818Z,5.25
2023-02-09T10:52:38.777Z,4.43
2023-02-09T10:55:15.224Z,4.70
2023-02-09T10:57:41.648Z,5.68
2023-02-09T11:00:17.177Z,4.47
2023-02-09T11:02:50.458Z,4.70
2023-02-09T11:05:26.299Z,5.45
2023-02-09T11:08:03.408Z,5.10
2023-02-09T11:10:30.405Z,4.93
2023-02-09T11:12:57.785Z,5.55
2023-02-09T11:15:27.137Z,6.10
2023-02-09T11:18:15.355Z,5.90
2023-02-09T11:20:50.171Z,5.55
2023-02-09T11:23:36.910Z,4.65
2023-02-09T11:26:19.879Z,5.00
2023-02-09T11:28:47.894Z,4.90
2023-02-09T11:31:17.197Z,4.97
2023-02-09T11:34:17.501Z,4.50
2023-02-09T11:37:06.972Z,5.15
2023-02-09T11:39:44.390Z,5.90
2023-02-09T11:42:13.590Z,5.40
2023-02-09T11:44:54.972Z,5.13
2023-02-09T11:47:27.869Z,5.03
2023-02-09T11:49:54.404Z,4.80
2023-02-09T11:52:24.940Z,5.63
2023-02-09T11:54:52.655Z,5.60
2023-02-09T11:57:27.226Z,4.15
2023-02-09T11:59:54.713Z,5.13
2023-02-09T12:02:42.213Z,5.82
2023-02-09T12:05:10.471Z,5.72
2023-02-09T12:07:44.367Z,5.15
2023-02-09T12:10:22.794Z,5.18
2023-02-09T12:13:03.151Z,4.80
2023-02-09T12:15:44.015Z,6.35
2023-02-09T12:18:16.127Z,4.88
2023-02-09T12:21:11.767Z,6.00
2023-02-09T12:23:38.730Z,4.85
2023-02-09T12:26:11.433Z,5.10
2023-02-09T12:28:45.628Z,5.30
2023-02-09T12:31:20.491Z,5.20
2023-02-09T12:33:46.871Z,5.50
2023-02-09T12:36:13.132Z,5.35
2023-02-09T12:38:49.339Z,5.45
2023-02-09T12:41:17.076Z,5.47
2023-02-09T12:43:43.830Z,5.95
2023-02-09T12:46:28.449Z,5.18
2023-02-09T12:49:00.905Z,6.00
2023-02-09T12:51:45.433Z,5.20
2023-02-09T12:54:49.963Z,6.03
2023-02-09T12:57:16.291Z,5.18
2023-02-09T12:59:51.668Z,5.20
2023-02-09T13:02:34.815Z,5.75
2023-02-09T13:05:26.582Z,5.97
2023-02-09T13:08:02.006Z,5.07
2023-02-09T13:10:59.381Z,5.07
2023-02-09T13:13:37.155Z,5.43
2023-02-09T13:16:14.908Z,5.47
2023-02-09T13:18:50.513Z,5.88
2023-02-09T13:21:38.781Z,5.55
2023-02-09T13:24:11.421Z,5.47
2023-02-09T13:26:50.833Z,5.72
2023-02-09T13:29:21.905Z,5.45
2023-02-09T13:31:56.374Z,6.07
2023-02-09T13:34:58.948Z,5.45
2023-02-09T13:37:47.056Z,5.55
2023-02-09T13:40:24.422Z,4.47
2023-02-09T13:43:10.466Z,5.70
2023-02-09T13:45:37.824Z,5.53
2023-02-09T13:48:04.717Z,5.50
2023-02-09T13:50:31.242Z,4.95
2023-02-09T13:53:10.618Z,5.22
2023-02-09T13:55:38.675Z,5.63
2023-02-09T13:58:11.699Z,6.07
2023-02-09T14:00:42.742Z,5.65
2023-02-09T14:03:20.553Z,5.10
2023-02-09T14:05:51.005Z,6.60
2023-02-09T14:08:17.486Z,6.05
2023-02-09T14:10:47.003Z,5.90
2023-02-09T14:13:31.856Z,5.95
2023-02-09T14:15:59.234Z,5.82
2023-02-09T14:18:44.727Z,5.60
2023-02-09T14:21:11.023Z,6.22
2023-02-09T14:23:38.025Z,5.45
2023-02-09T14:26:20.674Z,6.22
2023-02-09T14:29:06.356Z,6.43
2023-02-09T14:31:35.879Z,5.97
2023-02-09T14:34:02.362Z,5.78
2023-02-09T14:36:33.382Z,5.65
2023-02-09T14:39:16.270Z,6.57
2023-02-09T14:42:08.251Z,6.43
2023-02-09T14:44:44.398Z,6.05
2023-02-09T14:47:35.562Z,5.30
2023-02-09T14:50:02.152Z,6.00
2023-02-09T14:52:28.700Z,6.22
2023-02-09T14:54:56.264Z,6.07
2023-02-09T14:57:25.084Z,5.63
2023-02-09T14:59:51.514Z,6.70
2023-02-09T15:02:23.055Z,6.47
2023-02-09T15:04:50.797Z,6.10
2023-02-09T15:07:19.222Z,6.18
2023-02-09T15:09:45.912Z,5.20
2023-02-09T15:12:27.698Z,6.40
2023-02-09T15:17:23.963Z,5.32
2023-02-09T15:19:50.385Z,7.25
2023-02-09T15:22:16.825Z,6.38
2023-02-09T15:24:47.060Z,6.15
2023-02-09T15:27:15.138Z,6.22
2023-02-09T15:29:41.529Z,5.90
2023-02-09T15:32:13.612Z,6.22
2023-02-09T15:34:40.020Z,6.32
2023-02-09T15:37:06.669Z,6.57
2023-02-09T15:39:33.246Z,6.10
2023-02-09T15:41:59.656Z,6.32
2023-02-09T15:44:26.036Z,6.78
2023-02-09T15:46:52.654Z,6.85
2023-02-09T15:49:19.090Z,6.75
2023-02-09T15:51:45.527Z,6.00
2023-02-09T15:54:15.046Z,6.53
2023-02-09T15:56:41.570Z,6.82
2023-02-09T15:59:18.890Z,6.55
2023-02-09T16:01:45.502Z,5.72
2023-02-09T16:04:14.188Z,5.50
2023-02-09T16:06:45.469Z,7.22
2023-02-09T16:09:17.426Z,5.97
2023-02-09T16:11:43.869Z,6.13
2023-02-09T16:14:15.451Z,5.57
2023-02-09T16:16:41.979Z,6.35
2023-02-09T16:19:08.409Z,6.38
2023-02-09T16:21:34.820Z,6.13
2023-02-09T16:24:02.890Z,6.72
2023-02-09T16:26:29.543Z,6.80
2023-02-09T16:28:56.223Z,6.30
2023-02-09T16:31:22.804Z,6.25
2023-02-09T16:33:49.576Z,6.43
2023-02-09T16:36:20.145Z,7.90
2023-02-09T16:38:46.663Z,6.45
2023-02-09T16:41:14.645Z,7.05
2023-02-09T16:43:41.070Z,5.97
2023-02-09T16:46:07.749Z,6.05
2023-02-09T16:48:34.567Z,6.20
2023-02-09T16:51:01.086Z,5.90
2023-02-09T16:53:36.444Z,6.88
2023-02-09T16:56:06.603Z,5.95
2023-02-09T16:58:32.985Z,7.13
2023-02-09T17:00:59.491Z,7.70
2023-02-09T17:03:39.300Z,7.35
2023-02-09T17:06:06.148Z,5.93
2023-02-09T17:08:33.527Z,6.50
2023-02-09T17:11:00.941Z,7.80
2023-02-09T17:13:27.424Z,6.53
2023-02-09T17:15:59.580Z,6.70
2023-02-09T17:18:31.180Z,6.90
2023-02-09T17:21:08.573Z,6.60
2023-02-09T17:23:35.030Z,7.40
2023-02-09T17:26:01.421Z,7.32
2023-02-09T17:28:27.995Z,6.88
2023-02-09T17:30:58.981Z,7.40
2023-02-09T17:33:30.043Z,7.97
2023-02-09T17:36:25.097Z,7.47
2023-02-09T17:38:43.533Z,6.32
2023-02-09T17:41:17.838Z,6.40
2023-02-09T17:43:44.241Z,7.43
2023-02-09T17:46:14.428Z,7.75
2023-02-09T17:48:40.864Z,6.40
2023-02-09T17:51:12.889Z,6.75
2023-02-09T17:53:39.284Z,9.00
2023-02-09T17:56:06.036Z,8.07
2023-02-09T17:58:32.425Z,7.75
2023-02-09T18:00:58.903Z,7.82
2023-02-09T18:03:25.377Z,7.50
2023-02-09T18:05:55.810Z,8.60
2023-02-09T18:08:22.294Z,8.82
2023-02-09T18:10:48.701Z,8.55
2023-02-09T18:13:19.306Z,8.85
2023-02-09T18:15:46.292Z,7.30
2023-02-09T18:18:12.982Z,8.10
2023-02-09T18:20:39.370Z,8.23
2023-02-09T18:23:05.774Z,7.80
2023-02-09T18:25:36.699Z,8.73
2023-02-09T18:28:04.223Z,8.55
2023-02-09T18:30:31.774Z,8.57
2023-02-09T18:32:58.338Z,8.05
2023-02-09T18:35:29.464Z,8.35
2023-02-09T18:37:55.845Z,8.43
2023-02-09T18:40:22.289Z,8.10
2023-02-09T18:42:48.713Z,7.78
2023-02-09T18:45:16.031Z,7.93
2023-02-09T18:47:42.537Z,8.70
2023-02-09T18:50:20.054Z,7.88
2023-02-09T18:52:50.163Z,8.25
2023-02-09T18:55:16.788Z,9.73
2023-02-09T18:57:43.192Z,8.80
2023-02-09T19:00:13.934Z,8.45
2023-02-09T19:02:40.473Z,8.93
2023-02-09T19:05:07.011Z,10.13
2023-02-09T19:07:33.976Z,8.73
2023-02-09T19:10:00.402Z,9.15
2023-02-09T19:12:28.291Z,9.45
2023-02-09T19:14:54.964Z,9.45
2023-02-09T19:17:21.485Z,8.75
2023-02-09T19:19:48.307Z,8.52
2023-02-09T19:22:21.211Z,8.95
2023-02-09T19:24:47.881Z,8.95
2023-02-09T19:27:15.365Z,9.75
2023-02-09T19:29:41.756Z,11.05
2023-02-09T19:32:08.540Z,9.35
2023-02-09T19:34:36.077Z,9.48
2023-02-09T19:37:04.692Z,8.35
2023-02-09T19:39:35.191Z,9.75
2023-02-09T19:42:01.622Z,8.80
2023-02-09T19:44:28.051Z,9.50
2023-02-09T19:46:54.595Z,9.20
2023-02-09T19:49:23.568Z,9.30
2023-02-09T19:51:50.266Z,9.02
2023-02-09T19:54:16.806Z,10.55
2023-02-09T19:56:43.313Z,10.70
2023-02-09T19:59:09.721Z,10.80
2023-02-09T20:01:36.202Z,10.10
2023-02-09T20:04:02.612Z,10.63
2023-02-09T20:06:30.895Z,10.40
2023-02-09T20:08:58.545Z,10.80
2023-02-09T20:11:25.088Z,10.00
2023-02-09T20:13:52.112Z,11.10
2023-02-09T20:16:23.520Z,11.02
2023-02-09T20:18:50.686Z,13.18
2023-02-09T20:21:18.710Z,11.18
2023-02-09T20:23:46.680Z,11.38
2023-02-09T20:26:15.908Z,10.98
2023-02-09T20:28:42.310Z,10.63
2023-02-09T20:31:08.932Z,11.27
2023-02-09T20:33:36.489Z,10.52
2023-02-09T20:36:07.279Z,10.18
2023-02-09T20:38:34.461Z,11.70
2023-02-09T20:41:00.864Z,11.25
2023-02-09T20:43:27.349Z,10.63
2023-02-09T20:45:54.888Z,12.20
2023-02-09T20:48:21.337Z,11.10
2023-02-09T20:50:48.067Z,11.88
2023-02-09T20:53:14.823Z,11.25
2023-02-09T20:55:43.496Z,12.15
2023-02-09T20:58:10.133Z,12.35
2023-02-09T21:00:36.640Z,13.30
2023-02-09T21:03:03.545Z,9.88
2023-02-09T21:05:29.974Z,12.13
2023-02-09T21:07:56.584Z,11.32
2023-02-09T21:10:23.060Z,12.10
2023-02-09T21:12:49.471Z,10.55
2023-02-09T21:15:15.919Z,12.15
2023-02-09T21:17:42.307Z,10.63
2023-02-09T21:20:08.850Z,11.55
2023-02-09T21:22:35.234Z,13.00
2023-02-09T21:25:01.666Z,11.52
2023-02-09T21:27:28.074Z,11.98
2023-02-09T21:29:54.516Z,9.82
2023-02-09T21:32:24.005Z,11.10
2023-02-09T21:34:50.427Z,10.85
2023-02-09T21:37:16.801Z,12.35
2023-02-09T21:39:43.236Z,10.73
2023-02-09T21:42:12.409Z,11.35
2023-02-09T21:44:39.020Z,11.88
2023-02-09T21:47:05.691Z,11.13
2023-02-09T21:49:32.242Z,11.05
2023-02-09T21:51:58.849Z,11.38
2023-02-09T21:54:26.560Z,12.55
2023-02-09T21:56:55.131Z,12.25
2023-02-09T21:59:22.737Z,13.05
2023-02-09T22:01:49.134Z,12.20
2023-02-09T22:04:15.612Z,13.60
2023-02-09T22:06:43.207Z,12.75
2023-02-09T22:09:09.681Z,11.95
2023-02-09T22:11:36.097Z,13.07
2023-02-09T22:14:02.510Z,12.90
2023-02-09T22:16:28.928Z,12.63
2023-02-09T22:18:57.980Z,12.57
2023-02-09T22:21:24.474Z,13.00
2023-02-09T22:23:53.861Z,11.68
2023-02-09T22:26:20.284Z,11.88
2023-02-09T22:28:46.660Z,12.98
2023-02-09T22:31:14.330Z,12.95
2023-02-09T22:33:40.812Z,12.75
2023-02-09T22:36:10.545Z,12.27
2023-02-09T22:38:36.924Z,12.40
2023-02-09T22:41:07.261Z,12.50
2023-02-09T22:43:34.224Z,12.38
2023-02-09T22:46:00.712Z,11.98
2023-02-09T22:48:27.136Z,13.57
2023-02-09T22:50:53.553Z,13.02
2023-02-09T22:53:19.946Z,12.85
2023-02-09T22:55:46.731Z,11.57
2023-02-09T22:58:13.324Z,13.00
2023-02-09T23:00:39.736Z,12.27
2023-02-09T23:03:06.113Z,12.88
2023-02-09T23:05:32.503Z,12.93
2023-02-09T23:07:58.921Z,12.98
2023-02-09T23:10:25.324Z,13.10
2023-02-09T23:12:51.743Z,12.38
2023-02-09T23:15:18.175Z,12.48
2023-02-09T23:17:44.584Z,14.20
2023-02-09T23:20:11.003Z,11.18
2023-02-09T23:22:37.497Z,13.82
2023-02-09T23:25:03.917Z,12.88
2023-02-09T23:27:30.334Z,12.02
2023-02-09T23:29:56.717Z,14.30
2023-02-09T23:32:23.738Z,12.88
2023-02-09T23:34:50.148Z,13.45
2023-02-09T23:37:19.041Z,14.00
2023-02-09T23:39:50.050Z,12.43
2023-02-09T23:42:16.446Z,12.35
2023-02-09T23:44:42.850Z,11.88
2023-02-09T23:47:09.290Z,14.23
2023-02-09T23:49:35.837Z,12.63
2023-02-09T23:52:02.236Z,12.15
2023-02-09T23:54:28.627Z,13.15
2023-02-09T23:56:55.034Z,11.68
2023-02-09T23:59:21.547Z,13.88
